Time;durP1;ratioP1;P1;durP2;ratioP2;P2;SDS_P1;SDS_P2;PMS_P1;PMS_P2;Temp;Humidity;BMP_temperature;BMP_pressure;BME280_temperature;BME280_humidity;BME280_pressure;Samples;Min_cycle;Max_cycle;Signal;HPM_P1;HPM_P2
2023/07/08 00:00:35;;;;;;;9.53;6.30;;;;;;;;;;5011820;28;20460;-62
2023/07/08 00:03:03;;;;;;;11.63;5.80;;;;;;;;;;5013326;28;20932;-62
2023/07/08 00:05:29;;;;;;;6.13;5.33;;;;;;;;;;5011586;28;20440;-62
2023/07/08 00:07:58;;;;;;;5.63;5.00;;;;;;;;;;5013079;28;20427;-62
2023/07/08 00:10:25;;;;;;;7.70;6.17;;;;;;;;;;5012953;28;20425;-62
2023/07/08 00:12:54;;;;;;;6.53;5.90;;;;;;;;;;5012295;28;20470;-62
2023/07/08 00:15:30;;;;;;;6.20;5.60;;;;;;;;;;5012989;28;20421;-62
2023/07/08 00:17:59;;;;;;;7.30;5.23;;;;;;;;;;5011710;28;20847;-63
2023/07/08 00:20:38;;;;;;;15.53;6.23;;;;;;;;;;5012647;28;20783;-62
2023/07/08 00:23:04;;;;;;;9.17;6.33;;;;;;;;;;5012758;28;20409;-62
2023/07/08 00:25:31;;;;;;;8.77;5.70;;;;;;;;;;5012905;28;20446;-62
2023/07/08 00:27:57;;;;;;;13.93;6.10;;;;;;;;;;5012949;28;20415;-62
2023/07/08 00:30:30;;;;;;;5.70;5.20;;;;;;;;;;5012867;28;20483;-62
2023/07/08 00:32:56;;;;;;;7.63;5.70;;;;;;;;;;5012536;28;20532;-61
2023/07/08 00:35:33;;;;;;;10.87;6.10;;;;;;;;;;5012578;28;20435;-62
2023/07/08 00:38:02;;;;;;;13.70;6.80;;;;;;;;;;5011225;28;20830;-62
2023/07/08 00:40:30;;;;;;;10.37;6.03;;;;;;;;;;5012744;28;20419;-62
2023/07/08 00:42:59;;;;;;;8.00;6.03;;;;;;;;;;5012402;28;20464;-62
2023/07/08 00:45:31;;;;;;;8.67;5.50;;;;;;;;;;5012559;28;20493;-62
2023/07/08 00:48:00;;;;;;;6.20;5.70;;;;;;;;;;5012425;28;20425;-61
2023/07/08 00:50:26;;;;;;;6.83;6.10;;;;;;;;;;5012245;28;20431;-62
2023/07/08 00:53:12;;;;;;;13.00;6.37;;;;;;;;;;5012264;28;20422;-62
2023/07/08 00:55:38;;;;;;;6.90;5.70;;;;;;;;;;5012196;28;20410;-62
2023/07/08 00:58:04;;;;;;;9.57;6.10;;;;;;;;;;5012385;28;20793;-61
2023/07/08 01:00:30;;;;;;;10.50;6.50;;;;;;;;;;5012301;28;20439;-62
2023/07/08 01:02:57;;;;;;;7.53;6.77;;;;;;;;;;5011110;28;20426;-62
2023/07/08 01:05:25;;;;;;;7.87;6.23;;;;;;;;;;5012346;28;20427;-61
2023/07/08 01:07:54;;;;;;;7.80;6.57;;;;;;;;;;5012113;28;20417;-62
2023/07/08 01:10:23;;;;;;;10.53;6.90;;;;;;;;;;5012166;28;20907;-62
2023/07/08 01:12:52;;;;;;;12.33;6.13;;;;;;;;;;5012093;28;20441;-62
2023/07/08 01:15:18;;;;;;;16.97;6.83;;;;;;;;;;5012192;28;20434;-62
2023/07/08 01:17:44;;;;;;;11.73;6.47;;;;;;;;;;5012272;28;20417;-62
2023/07/08 01:20:14;;;;;;;10.07;6.30;;;;;;;;;;5012312;28;20460;-62
2023/07/08 01:22:43;;;;;;;19.67;6.27;;;;;;;;;;5012124;28;20512;-61
2023/07/08 01:25:13;;;;;;;11.70;5.90;;;;;;;;;;5012649;28;20421;-62
2023/07/08 01:27:41;;;;;;;13.10;6.30;;;;;;;;;;5015828;28;20417;-62
2023/07/08 01:30:07;;;;;;;8.87;6.83;;;;;;;;;;5016047;28;20741;-62
2023/07/08 01:32:36;;;;;;;8.80;6.53;;;;;;;;;;5016007;28;20863;-62
2023/07/08 01:35:03;;;;;;;19.10;6.70;;;;;;;;;;5015842;28;20441;-62
2023/07/08 01:37:39;;;;;;;20.53;5.90;;;;;;;;;;5015861;28;21000;-62
2023/07/08 01:40:15;;;;;;;11.27;6.50;;;;;;;;;;5016223;28;20413;-61
2023/07/08 01:42:41;;;;;;;11.20;6.43;;;;;;;;;;5015895;28;20472;-62
2023/07/08 01:45:16;;;;;;;12.90;6.57;;;;;;;;;;5015480;28;20607;-61
2023/07/08 01:47:46;;;;;;;8.23;6.87;;;;;;;;;;5015543;28;20421;-62
2023/07/08 01:50:12;;;;;;;9.67;6.27;;;;;;;;;;5015612;28;20447;-62
2023/07/08 01:52:40;;;;;;;10.43;6.23;;;;;;;;;;5015589;28;20417;-62
2023/07/08 01:55:06;;;;;;;10.00;6.10;;;;;;;;;;5015084;28;20425;-62
2023/07/08 01:57:32;;;;;;;21.20;15.13;;;;;;;;;;5015880;28;20791;-62
2023/07/08 01:59:59;;;;;;;7.20;5.97;;;;;;;;;;5015316;28;20449;-62
2023/07/08 02:02:27;;;;;;;14.73;7.30;;;;;;;;;;5015361;28;20443;-62
2023/07/08 02:04:53;;;;;;;12.60;7.63;;;;;;;;;;5015464;28;20451;-61
2023/07/08 02:07:19;;;;;;;7.30;6.60;;;;;;;;;;5015340;28;20421;-62
2023/07/08 02:09:45;;;;;;;7.77;6.23;;;;;;;;;;5015298;28;20441;-62
2023/07/08 02:12:12;;;;;;;9.80;6.40;;;;;;;;;;5015239;28;20778;-62
2023/07/08 02:14:38;;;;;;;7.37;5.80;;;;;;;;;;5015167;28;20976;-62
2023/07/08 02:17:05;;;;;;;8.17;6.13;;;;;;;;;;5015050;28;20467;-61
2023/07/08 02:19:31;;;;;;;16.77;6.40;;;;;;;;;;5015297;28;20409;-62
2023/07/08 02:21:57;;;;;;;7.60;6.07;;;;;;;;;;5015179;28;20444;-61
2023/07/08 02:24:23;;;;;;;10.27;6.60;;;;;;;;;;5015153;28;20432;-62
2023/07/08 02:26:52;;;;;;;9.23;6.47;;;;;;;;;;5015069;28;20412;-62
2023/07/08 02:29:18;;;;;;;11.17;6.50;;;;;;;;;;5015301;28;20440;-61
2023/07/08 02:31:44;;;;;;;9.37;6.40;;;;;;;;;;5015234;28;20916;-62
2023/07/08 02:34:12;;;;;;;17.60;6.63;;;;;;;;;;5014720;28;20464;-62
2023/07/08 02:36:38;;;;;;;8.60;6.10;;;;;;;;;;5014564;28;20559;-61
2023/07/08 02:39:05;;;;;;;10.07;6.37;;;;;;;;;;5014798;28;20798;-61
2023/07/08 02:41:33;;;;;;;9.77;6.00;;;;;;;;;;5014847;28;20421;-62
2023/07/08 02:44:00;;;;;;;7.27;5.50;;;;;;;;;;5014596;28;20478;-61
2023/07/08 02:46:26;;;;;;;10.97;5.40;;;;;;;;;;5013460;28;20412;-61
2023/07/08 02:48:52;;;;;;;18.30;7.37;;;;;;;;;;5014594;28;20436;-61
2023/07/08 02:51:18;;;;;;;11.73;6.67;;;;;;;;;;5014495;28;20418;-61
2023/07/08 02:53:44;;;;;;;15.03;6.67;;;;;;;;;;5014469;28;20464;-61
2023/07/08 02:56:10;;;;;;;12.20;6.50;;;;;;;;;;5014405;28;20462;-61
2023/07/08 02:58:36;;;;;;;10.80;5.90;;;;;;;;;;5014722;28;20466;-61
2023/07/08 03:01:02;;;;;;;6.47;5.57;;;;;;;;;;5014322;28;20441;-61
2023/07/08 03:03:29;;;;;;;9.10;6.00;;;;;;;;;;5014464;28;20933;-61
2023/07/08 03:06:02;;;;;;;9.40;5.63;;;;;;;;;;5014283;28;20425;-61
2023/07/08 03:08:28;;;;;;;9.63;5.80;;;;;;;;;;5014302;28;20410;-61
2023/07/08 03:10:55;;;;;;;19.20;6.17;;;;;;;;;;5014091;28;20426;-61
2023/07/08 03:13:21;;;;;;;8.37;5.93;;;;;;;;;;5014117;28;20479;-64
2023/07/08 03:15:47;;;;;;;11.93;7.00;;;;;;;;;;5014171;28;20483;-64
2023/07/08 03:18:13;;;;;;;6.80;6.10;;;;;;;;;;5014078;28;20822;-64
2023/07/08 03:20:44;;;;;;;11.17;6.97;;;;;;;;;;5013882;28;20427;-64
2023/07/08 03:23:10;;;;;;;9.30;5.83;;;;;;;;;;5013998;28;20421;-64
2023/07/08 03:25:37;;;;;;;17.67;6.53;;;;;;;;;;5013899;28;20465;-64
2023/07/08 03:28:14;;;;;;;14.17;5.77;;;;;;;;;;5013851;28;20433;-63
2023/07/08 03:30:43;;;;;;;7.97;6.20;;;;;;;;;;5013704;28;20422;-63
2023/07/08 03:33:11;;;;;;;6.80;5.40;;;;;;;;;;5013722;28;20607;-63
2023/07/08 03:35:38;;;;;;;9.70;6.60;;;;;;;;;;5013596;28;20812;-63
2023/07/08 03:38:06;;;;;;;7.27;6.13;;;;;;;;;;5013746;28;20634;-63
2023/07/08 03:40:32;;;;;;;6.23;4.90;;;;;;;;;;5013419;28;20479;-63
2023/07/08 03:43:01;;;;;;;6.10;4.80;;;;;;;;;;5013950;28;20473;-63
2023/07/08 03:45:27;;;;;;;7.00;4.70;;;;;;;;;;5013460;28;20828;-63
2023/07/08 03:47:53;;;;;;;12.73;5.20;;;;;;;;;;5012893;28;20431;-63
2023/07/08 03:50:20;;;;;;;5.23;4.77;;;;;;;;;;5013402;28;20427;-63
2023/07/08 03:52:47;;;;;;;5.80;4.50;;;;;;;;;;5011969;28;20428;-63
2023/07/08 03:55:13;;;;;;;5.47;4.97;;;;;;;;;;5013448;28;20445;-63
2023/07/08 03:57:39;;;;;;;13.33;4.77;;;;;;;;;;5013350;28;20830;-63
2023/07/08 04:00:09;;;;;;;8.87;4.80;;;;;;;;;;5013444;28;20441;-63
2023/07/08 04:02:35;;;;;;;10.47;4.90;;;;;;;;;;5011964;28;20915;-63
2023/07/08 04:05:01;;;;;;;4.70;4.40;;;;;;;;;;5013154;28;20442;-63
2023/07/08 04:07:27;;;;;;;7.73;4.43;;;;;;;;;;5013212;28;20437;-63
2023/07/08 04:09:53;;;;;;;9.53;4.60;;;;;;;;;;5012117;28;20910;-63
2023/07/08 04:12:23;;;;;;;4.50;4.10;;;;;;;;;;5013091;28;20439;-63
2023/07/08 04:14:49;;;;;;;7.60;5.30;;;;;;;;;;5012949;28;20479;-63
2023/07/08 04:17:19;;;;;;;7.03;5.00;;;;;;;;;;5012883;28;20414;-63
2023/07/08 04:19:45;;;;;;;7.57;4.67;;;;;;;;;;5012866;28;20528;-63
2023/07/08 04:22:14;;;;;;;4.47;4.23;;;;;;;;;;5013000;28;20434;-62
2023/07/08 04:24:40;;;;;;;6.70;4.40;;;;;;;;;;5012851;28;20439;-63
2023/07/08 04:27:06;;;;;;;5.90;4.60;;;;;;;;;;5012992;28;20412;-63
2023/07/08 04:29:34;;;;;;;6.23;4.90;;;;;;;;;;5012726;28;20555;-63
2023/07/08 04:32:00;;;;;;;6.60;4.23;;;;;;;;;;5013153;28;20436;-63
2023/07/08 04:34:29;;;;;;;6.50;4.60;;;;;;;;;;5012661;28;20498;-63
2023/07/08 04:36:55;;;;;;;6.30;4.70;;;;;;;;;;5012842;28;20411;-63
2023/07/08 04:39:21;;;;;;;5.90;4.87;;;;;;;;;;5012788;28;20521;-63
2023/07/08 04:41:47;;;;;;;6.87;5.60;;;;;;;;;;5012612;28;20483;-63
2023/07/08 04:44:13;;;;;;;5.73;4.70;;;;;;;;;;5012639;28;20413;-64
2023/07/08 04:46:53;;;;;;;6.57;5.00;;;;;;;;;;5012552;28;20471;-64
2023/07/08 04:49:19;;;;;;;6.07;5.27;;;;;;;;;;5012655;28;20403;-63
2023/07/08 04:51:45;;;;;;;6.77;5.50;;;;;;;;;;5012392;28;20424;-63
2023/07/08 04:54:11;;;;;;;10.13;5.00;;;;;;;;;;5012825;28;20567;-64
2023/07/08 04:56:39;;;;;;;8.87;4.80;;;;;;;;;;5012151;28;20432;-64
2023/07/08 04:59:08;;;;;;;6.40;4.53;;;;;;;;;;5012286;28;20449;-64
2023/07/08 05:01:34;;;;;;;7.73;4.40;;;;;;;;;;5012327;28;20435;-64
2023/07/08 05:04:00;;;;;;;6.00;4.20;;;;;;;;;;5012109;28;20439;-64
2023/07/08 05:06:29;;;;;;;4.40;4.07;;;;;;;;;;5011151;28;20434;-64
2023/07/08 05:08:55;;;;;;;4.37;3.97;;;;;;;;;;5012183;28;20422;-65
2023/07/08 05:11:25;;;;;;;4.20;3.80;;;;;;;;;;5012261;28;20443;-64
2023/07/08 05:13:51;;;;;;;8.73;4.60;;;;;;;;;;5011668;28;20484;-64
2023/07/08 05:16:17;;;;;;;6.50;4.27;;;;;;;;;;5011308;28;20888;-65
2023/07/08 05:18:45;;;;;;;5.73;4.10;;;;;;;;;;5011450;28;20492;-65
2023/07/08 05:21:11;;;;;;;6.40;4.37;;;;;;;;;;5011325;28;20424;-65
2023/07/08 05:23:37;;;;;;;9.37;4.83;;;;;;;;;;5011432;28;20889;-65
2023/07/08 05:26:07;;;;;;;5.63;4.07;;;;;;;;;;5011739;28;20854;-65
2023/07/08 05:28:33;;;;;;;6.10;3.57;;;;;;;;;;5012293;28;20410;-65
2023/07/08 05:30:59;;;;;;;5.23;3.80;;;;;;;;;;5012075;28;20524;-65
2023/07/08 05:33:29;;;;;;;3.87;3.57;;;;;;;;;;5012095;28;20556;-65
2023/07/08 05:35:55;;;;;;;3.17;2.93;;;;;;;;;;5011990;28;20487;-65
2023/07/08 05:38:24;;;;;;;3.03;2.80;;;;;;;;;;5011961;28;20409;-65
2023/07/08 05:40:56;;;;;;;5.67;2.80;;;;;;;;;;5012058;28;20466;-65
2023/07/08 05:43:25;;;;;;;3.00;2.73;;;;;;;;;;5012153;28;20920;-65
2023/07/08 05:45:57;;;;;;;4.97;3.30;;;;;;;;;;5012121;28;20484;-65
2023/07/08 05:48:23;;;;;;;4.40;2.87;;;;;;;;;;5011397;28;20532;-65
2023/07/08 05:50:49;;;;;;;3.03;2.83;;;;;;;;;;5012038;28;20459;-65
2023/07/08 05:53:15;;;;;;;3.83;2.83;;;;;;;;;;5011613;28;20481;-65
2023/07/08 05:55:42;;;;;;;3.93;3.23;;;;;;;;;;5010587;28;20900;-65
2023/07/08 05:58:08;;;;;;;3.53;3.03;;;;;;;;;;5009337;28;20928;-65
2023/07/08 06:00:34;;;;;;;3.23;3.03;;;;;;;;;;5010613;28;20449;-64
2023/07/08 06:03:00;;;;;;;4.90;3.10;;;;;;;;;;5011312;28;20421;-65
2023/07/08 06:05:29;;;;;;;3.70;2.67;;;;;;;;;;5011317;28;20908;-65
2023/07/08 06:07:55;;;;;;;2.70;2.60;;;;;;;;;;5011347;28;20510;-65
2023/07/08 06:10:21;;;;;;;2.93;2.67;;;;;;;;;;5011589;28;20554;-67
2023/07/08 06:12:47;;;;;;;3.63;2.27;;;;;;;;;;5014352;28;20415;-65
2023/07/08 06:15:13;;;;;;;4.13;3.17;;;;;;;;;;5015130;28;20803;-65
2023/07/08 06:17:39;;;;;;;3.43;2.73;;;;;;;;;;5015238;28;20403;-65
2023/07/08 06:20:05;;;;;;;2.73;2.63;;;;;;;;;;5015194;28;20402;-65
2023/07/08 06:22:33;;;;;;;3.67;2.40;;;;;;;;;;5015200;28;20465;-65
2023/07/08 06:24:59;;;;;;;2.83;2.63;;;;;;;;;;5015321;28;20445;-65
2023/07/08 06:27:25;;;;;;;3.03;2.83;;;;;;;;;;5014931;28;20900;-65
2023/07/08 06:29:51;;;;;;;2.40;2.30;;;;;;;;;;5015068;28;20422;-65
2023/07/08 06:32:17;;;;;;;3.27;3.00;;;;;;;;;;5014193;28;20466;-65
2023/07/08 06:34:43;;;;;;;3.60;3.17;;;;;;;;;;5014936;28;20554;-65
2023/07/08 06:37:09;;;;;;;9.20;2.60;;;;;;;;;;5014718;28;20521;-65
2023/07/08 06:39:35;;;;;;;2.80;2.60;;;;;;;;;;5014840;28;20415;-65
2023/07/08 06:42:01;;;;;;;2.93;2.60;;;;;;;;;;5014628;28;20482;-65
2023/07/08 06:44:27;;;;;;;2.97;2.60;;;;;;;;;;5014607;28;20445;-65
2023/07/08 06:46:53;;;;;;;3.10;2.80;;;;;;;;;;5014501;28;20918;-65
2023/07/08 06:49:22;;;;;;;6.33;2.63;;;;;;;;;;5014886;28;20984;-65
2023/07/08 06:51:50;;;;;;;2.77;2.57;;;;;;;;;;5014792;28;20474;-65
2023/07/08 06:54:16;;;;;;;2.77;2.67;;;;;;;;;;5014377;28;20480;-65
2023/07/08 06:56:42;;;;;;;3.47;3.10;;;;;;;;;;5014396;28;20417;-65
2023/07/08 06:59:11;;;;;;;9.50;3.50;;;;;;;;;;5014297;28;20789;-64
2023/07/08 07:01:37;;;;;;;2.87;2.60;;;;;;;;;;5014076;28;20942;-64
2023/07/08 07:04:05;;;;;;;6.47;2.50;;;;;;;;;;5014459;28;20416;-64
2023/07/08 07:06:33;;;;;;;2.47;2.27;;;;;;;;;;5013933;28;20427;-64
2023/07/08 07:08:59;;;;;;;4.43;2.83;;;;;;;;;;5014114;28;20420;-64
2023/07/08 07:11:28;;;;;;;4.23;2.93;;;;;;;;;;5013954;28;20527;-64
2023/07/08 07:13:54;;;;;;;3.57;2.70;;;;;;;;;;5013657;28;20525;-64
2023/07/08 07:16:20;;;;;;;4.23;3.10;;;;;;;;;;5013745;28;20433;-64
2023/07/08 07:18:46;;;;;;;2.60;2.40;;;;;;;;;;5012883;28;20421;-64
2023/07/08 07:21:12;;;;;;;5.90;5.30;;;;;;;;;;5013890;28;20449;-64
2023/07/08 07:23:38;;;;;;;7.03;2.60;;;;;;;;;;5012576;28;20453;-64
2023/07/08 07:26:04;;;;;;;3.10;2.80;;;;;;;;;;5013867;28;20477;-64
2023/07/08 07:28:33;;;;;;;4.70;3.73;;;;;;;;;;5013704;28;20931;-64
2023/07/08 07:30:59;;;;;;;5.20;3.20;;;;;;;;;;5013634;28;20433;-64
2023/07/08 07:33:25;;;;;;;9.40;3.80;;;;;;;;;;5013296;28;20570;-64
2023/07/08 07:35:51;;;;;;;4.13;3.80;;;;;;;;;;5013757;28;20401;-64
2023/07/08 07:38:17;;;;;;;6.97;4.03;;;;;;;;;;5013640;28;20448;-64
2023/07/08 07:40:44;;;;;;;4.20;3.80;;;;;;;;;;5013302;28;20505;-64
2023/07/08 07:43:12;;;;;;;4.80;4.10;;;;;;;;;;5013449;28;20458;-64
2023/07/08 07:45:38;;;;;;;6.07;4.30;;;;;;;;;;5013350;28;20452;-64
2023/07/08 07:48:04;;;;;;;5.20;4.23;;;;;;;;;;5013383;28;20436;-64
2023/07/08 07:50:34;;;;;;;5.23;4.37;;;;;;;;;;5013370;28;20439;-64
2023/07/08 07:53:00;;;;;;;5.20;4.80;;;;;;;;;;5013935;28;20498;-64
2023/07/08 07:55:28;;;;;;;5.30;4.77;;;;;;;;;;5013288;28;21048;-64
2023/07/08 07:57:54;;;;;;;6.87;6.27;;;;;;;;;;5013265;28;20499;-64
2023/07/08 08:00:20;;;;;;;4.50;4.10;;;;;;;;;;5012985;28;20463;-64
2023/07/08 08:02:46;;;;;;;5.50;4.03;;;;;;;;;;5012026;28;20447;-64
2023/07/08 08:05:12;;;;;;;7.70;4.60;;;;;;;;;;5013423;28;20509;-64
2023/07/08 08:07:38;;;;;;;5.50;5.00;;;;;;;;;;5012821;28;20505;-64
2023/07/08 08:10:04;;;;;;;8.73;4.27;;;;;;;;;;5013442;28;20401;-64
2023/07/08 08:12:30;;;;;;;4.87;4.40;;;;;;;;;;5011733;28;20538;-64
2023/07/08 08:14:56;;;;;;;5.33;4.90;;;;;;;;;;5013340;28;20562;-64
2023/07/08 08:17:22;;;;;;;6.53;4.07;;;;;;;;;;5013282;28;20431;-64
2023/07/08 08:19:48;;;;;;;4.37;4.00;;;;;;;;;;5013196;28;20500;-64
2023/07/08 08:22:15;;;;;;;7.40;4.00;;;;;;;;;;5013223;28;20434;-64
2023/07/08 08:24:41;;;;;;;11.53;3.77;;;;;;;;;;5012389;28;20914;-64
2023/07/08 08:27:07;;;;;;;4.97;4.53;;;;;;;;;;5013142;28;20446;-64
2023/07/08 08:29:33;;;;;;;4.37;3.97;;;;;;;;;;5011753;28;20981;-64
2023/07/08 08:32:01;;;;;;;3.47;3.27;;;;;;;;;;5013010;28;20455;-64
2023/07/08 08:34:28;;;;;;;9.53;3.83;;;;;;;;;;5012756;28;20468;-64
2023/07/08 08:36:55;;;;;;;7.40;3.83;;;;;;;;;;5012920;28;20448;-64
2023/07/08 08:39:21;;;;;;;3.50;3.30;;;;;;;;;;5013043;28;20412;-64
2023/07/08 08:41:47;;;;;;;3.83;3.53;;;;;;;;;;5012913;28;20542;-64
2023/07/08 08:44:18;;;;;;;5.43;3.83;;;;;;;;;;5012633;28;20839;-64
2023/07/08 08:46:47;;;;;;;10.40;8.07;;;;;;;;;;5012586;28;20418;-64
2023/07/08 08:49:13;;;;;;;3.70;3.50;;;;;;;;;;5012822;28;20455;-64
2023/07/08 08:51:39;;;;;;;4.10;3.00;;;;;;;;;;5012599;28;20465;-64
2023/07/08 08:54:05;;;;;;;3.90;3.60;;;;;;;;;;5011136;28;20567;-64
2023/07/08 08:56:40;;;;;;;4.80;3.20;;;;;;;;;;5012580;28;20515;-64
2023/07/08 08:59:11;;;;;;;3.40;3.07;;;;;;;;;;5012687;28;20412;-64
2023/07/08 09:01:37;;;;;;;3.90;3.00;;;;;;;;;;5012373;28;20518;-64
2023/07/08 09:04:11;;;;;;;4.27;3.03;;;;;;;;;;5012370;28;20443;-64
2023/07/08 09:06:39;;;;;;;9.73;3.63;;;;;;;;;;5012562;28;20412;-64
2023/07/08 09:09:16;;;;;;;16.73;4.00;;;;;;;;;;5012279;28;20421;-65
2023/07/08 09:11:42;;;;;;;4.27;2.70;;;;;;;;;;5012440;28;20423;-65
2023/07/08 09:14:38;;;;;;;3.50;3.20;;;;;;;;;;5012432;28;20516;-65
2023/07/08 09:17:22;;;;;;;3.17;2.97;;;;;;;;;;5012113;28;20461;-65
2023/07/08 09:19:53;;;;;;;7.50;3.20;;;;;;;;;;5012460;28;20419;-65
2023/07/08 09:22:42;;;;;;;3.13;2.93;;;;;;;;;;5012470;28;20433;-65
2023/07/08 09:25:30;;;;;;;2.90;2.80;;;;;;;;;;5011101;28;20429;-65
2023/07/08 09:27:58;;;;;;;3.23;2.63;;;;;;;;;;5012192;28;20430;-64
2023/07/08 09:30:26;;;;;;;3.77;3.33;;;;;;;;;;5012505;28;20419;-64
2023/07/08 09:32:52;;;;;;;4.13;3.23;;;;;;;;;;5012246;28;20406;-64
2023/07/08 09:35:26;;;;;;;2.73;2.60;;;;;;;;;;5011033;28;21084;-64
2023/07/08 09:37:54;;;;;;;5.97;2.80;;;;;;;;;;5012328;28;20489;-64
2023/07/08 09:40:21;;;;;;;3.13;2.53;;;;;;;;;;5012389;28;20839;-64
2023/07/08 09:42:55;;;;;;;3.30;3.00;;;;;;;;;;5012334;28;20445;-64
2023/07/08 09:45:24;;;;;;;3.33;2.67;;;;;;;;;;5012148;28;20503;-64
2023/07/08 09:47:54;;;;;;;5.57;5.07;;;;;;;;;;5015526;28;20482;-64
2023/07/08 09:50:23;;;;;;;4.43;3.10;;;;;;;;;;5015974;28;20419;-64
2023/07/08 09:52:51;;;;;;;4.50;2.50;;;;;;;;;;5015582;28;20419;-64
2023/07/08 09:55:19;;;;;;;3.53;3.23;;;;;;;;;;5014257;28;20483;-63
2023/07/08 09:57:47;;;;;;;3.00;2.90;;;;;;;;;;5015899;28;20414;-63
2023/07/08 10:00:17;;;;;;;3.30;2.93;;;;;;;;;;5014405;28;20935;-64
2023/07/08 10:02:45;;;;;;;4.00;3.10;;;;;;;;;;5015764;28;20589;-65
2023/07/08 10:05:15;;;;;;;2.73;2.63;;;;;;;;;;5015780;28;20431;-64
2023/07/08 10:07:41;;;;;;;2.60;2.50;;;;;;;;;;5015502;28;20884;-64
2023/07/08 10:10:14;;;;;;;2.87;2.57;;;;;;;;;;5014301;28;20438;-64
2023/07/08 10:12:42;;;;;;;6.60;2.90;;;;;;;;;;5014581;28;20439;-64
2023/07/08 10:15:20;;;;;;;4.80;3.07;;;;;;;;;;5015360;28;20550;-64
2023/07/08 10:17:46;;;;;;;2.53;2.27;;;;;;;;;;5015544;28;20870;-64
2023/07/08 10:20:13;;;;;;;4.77;2.63;;;;;;;;;;5015466;28;20504;-64
2023/07/08 10:22:53;;;;;;;2.17;2.07;;;;;;;;;;5013850;28;20456;-63
2023/07/08 10:25:29;;;;;;;2.03;1.93;;;;;;;;;;5015495;28;20455;-64
2023/07/08 10:28:04;;;;;;;2.20;2.10;;;;;;;;;;5015264;28;20408;-64
2023/07/08 10:30:32;;;;;;;2.57;2.37;;;;;;;;;;5015347;28;20432;-64
2023/07/08 10:33:16;;;;;;;2.70;1.80;;;;;;;;;;5014946;28;20417;-64
2023/07/08 10:35:48;;;;;;;2.33;2.20;;;;;;;;;;5015138;28;20547;-64
2023/07/08 10:38:23;;;;;;;4.50;4.10;;;;;;;;;;5015030;28;20448;-64
2023/07/08 10:40:53;;;;;;;2.27;2.17;;;;;;;;;;5015015;28;20420;-64
2023/07/08 10:43:33;;;;;;;2.40;2.20;;;;;;;;;;5014962;28;20448;-64
2023/07/08 10:45:59;;;;;;;3.33;2.10;;;;;;;;;;5014927;28;20425;-64
2023/07/08 10:48:44;;;;;;;1.80;1.70;;;;;;;;;;5014697;28;20783;-64
2023/07/08 10:51:31;;;;;;;2.17;2.07;;;;;;;;;;5014836;28;20849;-64
2023/07/08 10:54:10;;;;;;;2.27;1.97;;;;;;;;;;5014490;28;20476;-64
2023/07/08 10:56:47;;;;;;;1.97;1.97;;;;;;;;;;5014772;28;20436;-64
2023/07/08 10:59:13;;;;;;;2.47;2.27;;;;;;;;;;5014736;28;20416;-64
2023/07/08 11:01:43;;;;;;;2.47;2.37;;;;;;;;;;5014749;28;20435;-64
2023/07/08 11:04:18;;;;;;;6.03;2.50;;;;;;;;;;5014599;28;20441;-64
2023/07/08 11:06:50;;;;;;;2.40;2.20;;;;;;;;;;5014712;28;20444;-64
2023/07/08 11:09:26;;;;;;;3.13;2.37;;;;;;;;;;5014461;28;20432;-64
2023/07/08 11:11:55;;;;;;;2.47;2.13;;;;;;;;;;5014770;28;20471;-64
2023/07/08 11:14:21;;;;;;;2.00;1.90;;;;;;;;;;5014102;28;20484;-61
2023/07/08 11:16:50;;;;;;;1.97;1.97;;;;;;;;;;5014979;28;20413;-61
2023/07/08 11:19:21;;;;;;;2.90;2.10;;;;;;;;;;5014591;28;20974;-61
2023/07/08 11:21:52;;;;;;;2.83;1.80;;;;;;;;;;5014400;28;20443;-60
2023/07/08 11:24:32;;;;;;;2.27;2.13;;;;;;;;;;5014180;28;21011;-61
2023/07/08 11:27:26;;;;;;;2.20;2.10;;;;;;;;;;5014423;28;20794;-61
2023/07/08 11:29:55;;;;;;;2.53;2.20;;;;;;;;;;5013733;28;20887;-62
2023/07/08 11:32:23;;;;;;;2.83;2.27;;;;;;;;;;5013980;28;20766;-62
2023/07/08 11:34:51;;;;;;;2.20;2.10;;;;;;;;;;5013846;28;20579;-61
2023/07/08 11:37:18;;;;;;;2.47;2.27;;;;;;;;;;5013861;28;20425;-63
2023/07/08 11:39:45;;;;;;;5.07;2.20;;;;;;;;;;5014189;28;20456;-65
2023/07/08 11:42:20;;;;;;;1.70;1.70;;;;;;;;;;5013915;28;20483;-65
2023/07/08 11:44:55;;;;;;;2.20;2.10;;;;;;;;;;5013722;28;20475;-65
2023/07/08 11:47:33;;;;;;;4.20;2.00;;;;;;;;;;5013632;28;20445;-65
2023/07/08 11:49:59;;;;;;;2.20;2.10;;;;;;;;;;5012492;28;20564;-65
2023/07/08 11:52:25;;;;;;;1.37;1.37;;;;;;;;;;5013757;28;20452;-64
2023/07/08 11:55:03;;;;;;;2.10;1.63;;;;;;;;;;5013801;28;20475;-65
2023/07/08 11:57:37;;;;;;;5.50;1.50;;;;;;;;;;5013458;28;20507;-64
2023/07/08 12:00:14;;;;;;;2.00;1.90;;;;;;;;;;5013151;28;20436;-64
2023/07/08 12:02:51;;;;;;;3.83;3.53;;;;;;;;;;5013358;28;20419;-65
2023/07/08 12:05:17;;;;;;;2.23;2.13;;;;;;;;;;5013564;28;20491;-63
2023/07/08 12:07:48;;;;;;;2.10;2.00;;;;;;;;;;5013217;28;20435;-66
2023/07/08 12:10:30;;;;;;;2.33;2.23;;;;;;;;;;5012694;28;20420;-67
2023/07/08 12:12:59;;;;;;;2.10;2.10;;;;;;;;;;5013521;28;20896;-67
2023/07/08 12:15:28;;;;;;;1.83;1.73;;;;;;;;;;5013184;28;20471;-66
2023/07/08 12:17:55;;;;;;;2.40;2.23;;;;;;;;;;5012874;28;20437;-65
2023/07/08 12:20:21;;;;;;;2.43;2.23;;;;;;;;;;5013013;28;20439;-65
2023/07/08 12:22:48;;;;;;;2.00;1.90;;;;;;;;;;5013694;28;20837;-64
2023/07/08 12:25:16;;;;;;;2.00;1.90;;;;;;;;;;5013326;28;20432;-66
2023/07/08 12:27:42;;;;;;;2.30;2.20;;;;;;;;;;5013209;28;20765;-64
2023/07/08 12:30:10;;;;;;;3.00;2.40;;;;;;;;;;5013192;28;20439;-64
2023/07/08 12:32:38;;;;;;;7.23;2.53;;;;;;;;;;5012839;28;20455;-65
2023/07/08 12:35:05;;;;;;;1.93;1.83;;;;;;;;;;5012642;28;20567;-66
2023/07/08 12:37:34;;;;;;;2.50;2.40;;;;;;;;;;5012856;28;20830;-65
2023/07/08 12:40:04;;;;;;;2.50;2.33;;;;;;;;;;5012998;28;20424;-63
2023/07/08 12:42:34;;;;;;;4.17;3.17;;;;;;;;;;5012647;28;20421;-66
2023/07/08 12:45:00;;;;;;;2.20;2.20;;;;;;;;;;5012875;28;20835;-63
2023/07/08 12:47:26;;;;;;;2.80;2.60;;;;;;;;;;5012576;28;20498;-62
2023/07/08 12:49:53;;;;;;;3.57;3.10;;;;;;;;;;5012565;28;20432;-61
2023/07/08 12:52:23;;;;;;;2.47;2.23;;;;;;;;;;5012702;28;20420;-63
2023/07/08 12:54:52;;;;;;;2.97;1.90;;;;;;;;;;5012508;28;20465;-63
2023/07/08 12:57:19;;;;;;;2.30;1.80;;;;;;;;;;5013000;28;20433;-63
2023/07/08 12:59:45;;;;;;;3.20;2.90;;;;;;;;;;5012789;28;20448;-64
2023/07/08 13:02:19;;;;;;;3.30;2.40;;;;;;;;;;5012940;28;20424;-63
2023/07/08 13:04:46;;;;;;;2.83;2.63;;;;;;;;;;5012751;28;20912;-64
2023/07/08 13:07:28;;;;;;;5.10;2.83;;;;;;;;;;5012935;28;20447;-63
2023/07/08 13:09:54;;;;;;;2.43;2.23;;;;;;;;;;5012502;28;20771;-63
2023/07/08 13:12:24;;;;;;;2.67;2.50;;;;;;;;;;5012674;28;20459;-63
2023/07/08 13:14:50;;;;;;;6.00;2.23;;;;;;;;;;5012593;28;20477;-63
2023/07/08 13:17:17;;;;;;;2.10;1.90;;;;;;;;;;5011376;28;20861;-63
2023/07/08 13:19:43;;;;;;;2.53;2.43;;;;;;;;;;5012355;28;20923;-63
2023/07/08 13:22:20;;;;;;;2.77;2.50;;;;;;;;;;5015192;28;20433;-63
2023/07/08 13:24:49;;;;;;;2.60;2.50;;;;;;;;;;5016457;28;20993;-63
2023/07/08 13:27:24;;;;;;;4.27;2.53;;;;;;;;;;5015320;28;20456;-63
2023/07/08 13:29:54;;;;;;;2.40;2.30;;;;;;;;;;5002973;28;20448;-63
2023/07/08 13:32:20;;;;;;;2.27;2.17;;;;;;;;;;5016425;28;20452;-63
2023/07/08 13:34:51;;;;;;;3.43;2.20;;;;;;;;;;5015776;28;20988;-63
2023/07/08 13:37:21;;;;;;;2.83;2.70;;;;;;;;;;5016091;28;20415;-63
2023/07/08 13:39:47;;;;;;;6.00;2.53;;;;;;;;;;5015752;28;20433;-63
2023/07/08 13:42:15;;;;;;;4.67;2.77;;;;;;;;;;5014339;28;20431;-63
2023/07/08 13:44:45;;;;;;;2.97;2.80;;;;;;;;;;5015792;28;20440;-63
2023/07/08 13:47:28;;;;;;;4.40;2.43;;;;;;;;;;5016161;28;20432;-63
2023/07/08 13:50:04;;;;;;;2.67;2.57;;;;;;;;;;5016070;28;20392;-62
2023/07/08 13:52:32;;;;;;;2.47;2.30;;;;;;;;;;5015916;28;20396;-62
2023/07/08 13:55:02;;;;;;;2.90;2.70;;;;;;;;;;5015700;28;20829;-62
2023/07/08 13:57:38;;;;;;;2.57;2.47;;;;;;;;;;5015553;28;20431;-62
2023/07/08 14:00:07;;;;;;;2.77;2.57;;;;;;;;;;5015426;28;20424;-62
2023/07/08 14:02:33;;;;;;;2.30;2.20;;;;;;;;;;5014418;28;20444;-64
2023/07/08 14:04:59;;;;;;;3.30;2.83;;;;;;;;;;5015772;28;20429;-62
2023/07/08 14:07:30;;;;;;;2.63;2.60;;;;;;;;;;5015310;28;20946;-63
2023/07/08 14:09:56;;;;;;;3.77;2.30;;;;;;;;;;5015113;28;20967;-63
2023/07/08 14:12:25;;;;;;;2.33;2.30;;;;;;;;;;5013933;28;20451;-63
2023/07/08 14:14:51;;;;;;;2.60;2.40;;;;;;;;;;5014896;28;20830;-63
2023/07/08 14:17:22;;;;;;;5.13;2.97;;;;;;;;;;5015303;28;20404;-63
2023/07/08 14:19:48;;;;;;;2.77;2.63;;;;;;;;;;5015256;28;20417;-63
2023/07/08 14:22:14;;;;;;;3.03;2.90;;;;;;;;;;5014939;28;20417;-63
2023/07/08 14:24:43;;;;;;;3.73;3.30;;;;;;;;;;5015085;28;20460;-63
2023/07/08 14:27:11;;;;;;;4.47;3.20;;;;;;;;;;5013608;28;20189;-63
2023/07/08 14:29:38;;;;;;;3.07;2.87;;;;;;;;;;5015075;28;20444;-63
2023/07/08 14:32:04;;;;;;;3.70;2.87;;;;;;;;;;5014701;28;20439;-63
2023/07/08 14:34:30;;;;;;;3.13;2.93;;;;;;;;;;5014952;28;20480;-63
2023/07/08 14:36:58;;;;;;;4.90;2.70;;;;;;;;;;5015025;28;20432;-63
2023/07/08 14:39:24;;;;;;;4.23;3.47;;;;;;;;;;5014868;28;20429;-63
2023/07/08 14:41:52;;;;;;;3.13;2.90;;;;;;;;;;5014909;28;20752;-63
2023/07/08 14:44:23;;;;;;;3.70;3.50;;;;;;;;;;5014715;28;20186;-64
2023/07/08 14:46:52;;;;;;;11.10;3.50;;;;;;;;;;5014628;28;20520;-62
2023/07/08 14:49:19;;;;;;;3.17;2.97;;;;;;;;;;5014655;28;20496;-63